CSB3 weather

St-Mathieu-De-Beloeil Airport
St-Mathieu-De-Beloeil, Quebec, Canada

Public forecast

Using degrees Celsius for public forecast. Weather courtesy of forecast.io.

Closest aviation weather report (METAR) to St-Mathieu-De-Beloeil Airport

Closest report is MontrĂ©al / Saint-Hubert Airport, 8.7 nm (16.1 km) WSW. Retrieved 2019/10/21 18:00 UTC (46 minutes ago):

CYHU 211800Z AUTO VRB04KT 9SM CLR 15/07 A3013 RMK SLP207

Closest aviation forecast (TAF) to St-Mathieu-De-Beloeil Airport

Closest forecast is MontrĂ©al / Saint-Hubert Airport, 8.7 nm (16.1 km) WSW. Retrieved 2019/10/21 18:42 UTC (4 minutes ago):

TAF CYHU 211738Z 2118/2218 06006KT P6SM FEW240 FM220300 06008KT P6SM FEW005 BKN200 TEMPO 2203/2208 3SM BR FM221600 12010G20KT P6SM FEW050 OVC150 RMK FCST BASED ON AUTO OBS NXT FCST BY 220000Z